»·PEaware :: N13M KSNA-KAVX

N13M :: KSNA-KAVX

FLIGHT INFORMATION

Flight Status: Arrived
Operator: Privately registered:
United States
More flights under this callsign
Pilot: Zhuojun Y. (28503)
Aircraft: BEECH AIRCRAFT DUCHESS
(BE76)
More flights by this aircraft type
Origin: KSNA John Wayne-Orange Co
United States
Destination: KAVX Catalina
United States
More flights between these airports :: More routes between these airports
Route: SLI V21 SXC
File this flight plan on PilotEdge
Remarks:
Altitude:
(Current/Filed)
4,000ft
Speed:
(Current/Filed)
160kts
Departed: 14-May-20 07:37 AM
Arrived: 14-May-20 08:05 AM
Distance/Time
Traveled:
32nm/0:28
Distance/Time
To Go:
Arrived

Flight Plot

Page will automatically refresh every two minutes.


Map Options




Map Legend


Flown Route
Filed Route
Departure Airport
Arrival Airport
Navaid (VOR, NDB)
Fix

Horizontal Profiles

Position Reports

Time Latitude Longitude Heading Altitude Ground
Speed
14-May-20 07:25 33.676613 -117.870367 0 59ft 0kts
14-May-20 07:26 33.676613 -117.870367 209 59ft 0kts
14-May-20 07:27 33.676613 -117.870367 209 59ft 0kts
14-May-20 07:28 33.676613 -117.870367 209 59ft 0kts
14-May-20 07:29 33.676613 -117.870367 209 59ft 0kts
14-May-20 07:30 33.676613 -117.870367 209 59ft 0kts
14-May-20 07:31 33.676460 -117.869833 29 59ft 12kts
14-May-20 07:32 33.681247 -117.866847 68 59ft 19kts
14-May-20 07:33 33.681279 -117.866540 98 59ft 0kts
14-May-20 07:34 33.681279 -117.866540 98 59ft 0kts
14-May-20 07:35 33.680739 -117.865816 211 59ft 10kts
14-May-20 07:36 33.668950 -117.873334 204 150ft 78kts
14-May-20 07:37 33.649771 -117.885529 217 1109ft 102kts
14-May-20 07:38 33.648608 -117.886562 216 1155ft 104kts
14-May-20 07:39 33.618875 -117.915327 214 2008ft 131kts
14-May-20 07:40 33.589662 -117.939722 207 1911ft 126kts
14-May-20 07:41 33.577666 -117.969519 305 2210ft 116kts
14-May-20 07:42 33.595598 -117.999909 308 2853ft 106kts
14-May-20 07:43 33.610017 -118.029006 313 3479ft 101kts
14-May-20 07:44 33.622754 -118.056735 311 4042ft 94kts
14-May-20 07:45 33.639022 -118.083505 305 4072ft 100kts
14-May-20 07:46 33.653508 -118.111424 279 4040ft 104kts
14-May-20 07:47 33.634913 -118.142619 228 3979ft 117kts
14-May-20 07:48 33.614685 -118.173218 234 4066ft 125kts
14-May-20 07:49 33.612816 -118.176177 237 4076ft 128kts
14-May-20 07:50 33.577250 -118.228011 220 4038ft 128kts
14-May-20 07:51 33.554188 -118.258364 236 4026ft 120kts
14-May-20 07:52 33.525303 -118.276129 195 4000ft 117kts
14-May-20 07:53 33.498180 -118.291492 213 4076ft 112kts
14-May-20 07:54 33.471231 -118.308510 227 4258ft 107kts
14-May-20 07:55 33.459204 -118.333467 278 4043ft 96kts
14-May-20 07:56 33.479711 -118.352570 349 3600ft 106kts
14-May-20 07:57 33.504716 -118.355707 345 4082ft 88kts
14-May-20 07:58 33.508323 -118.355936 344 4121ft 85kts
14-May-20 07:59 33.507846 -118.391164 246 4109ft 85kts
14-May-20 08:00 33.482327 -118.397962 189 3741ft 101kts
14-May-20 08:01 33.453703 -118.398269 178 3117ft 105kts
14-May-20 08:02 33.425098 -118.392527 187 2323ft 96kts
14-May-20 08:03 33.409826 -118.407519 235 1704ft 70kts
14-May-20 08:04 33.403708 -118.417984 236 1552ft 12kts
14-May-20 08:05 33.402539 -118.419244 56 1552ft 3kts
14-May-20 08:06 33.403396 -118.417765 52 1552ft 13kts
14-May-20 08:07 33.403133 -118.415758 163 1545ft 0kts
14-May-20 08:08 33.403134 -118.415758 163 1545ft 0kts
14-May-20 08:09 33.403134 -118.415758 163 1545ft 0kts
14-May-20 08:10 33.403134 -118.415758 163 1545ft 0kts
14-May-20 08:11 33.403134 -118.415758 163 1545ft 0kts
14-May-20 08:12 33.403134 -118.415758 163 1545ft 0kts
14-May-20 08:13 33.403134 -118.415758 163 1545ft 0kts
14-May-20 08:14 33.403134 -118.415758 163 1545ft 0kts
14-May-20 08:15 33.403134 -118.415758 163 1545ft 0kts

Navigation Log

Ident Type
Flight plan parsing failed, navigation log unavailable